.
WxDataArchive / Data Records for 2014-04-05
2014-04-04 April 2014 2014-04-06

Data Records for Saturday, 05 April 2014

Time	Temp	Chill	HIndex	Humid	Dewpt	 Wind 	HiWind	WindDir	Rain 	Barom
-----	----	-----	------	-----	-----	------	------	-------	-----	-----
00:00	36.2	36.2	36.2	74	28.7	3	6	248	0.00	29.874 
00:05	36.2	36.2	36.2	74	28.7	2	7	248	0.00	29.874 
00:10	36.2	36.2	36.2	74	28.7	2	5	248	0.00	29.874 
00:15	36.3	36.3	36.3	74	28.8	3	7	248	0.00	29.880 
00:20	36.3	36.3	36.3	74	28.8	2	7	248	0.00	29.880 
00:25	36.3	36.3	36.3	73	28.5	2	5	248	0.00	29.880 
00:30	36.3	36.3	36.3	73	28.5	2	4	248	0.00	29.890 
00:35	36.3	36.3	36.3	73	28.5	2	5	292	0.00	29.890 
00:40	36.3	36.3	36.3	73	28.5	2	5	248	0.00	29.890 
00:45	36.3	36.3	36.3	73	28.5	2	5	248	0.00	29.895 
00:50	36.3	36.3	36.3	73	28.5	2	4	248	0.00	29.895 
00:55	36.3	36.3	36.3	73	28.5	2	5	270	0.00	29.895 
01:00	36.3	36.3	36.3	73	28.5	3	7	270	0.00	29.897 
01:05	36.3	36.3	36.3	73	28.5	2	5	248	0.00	29.897 
01:10	36.3	36.3	36.3	73	28.5	2	6	248	0.00	29.897 
01:15	36.3	36.3	36.3	73	28.5	2	3	248	0.00	29.911 
01:20	36.3	36.3	36.3	74	28.8	2	5	248	0.00	29.911 
01:25	36.3	36.3	36.3	73	28.5	2	5	270	0.00	29.911 
01:30	36.3	36.3	36.3	72	28.2	3	9	270	0.00	29.915 
01:35	36.5	36.5	36.5	72	28.3	2	5	270	0.00	29.915 
01:40	36.6	36.6	36.6	71	28.1	3	6	270	0.00	29.915 
01:45	36.6	36.6	36.6	70	27.8	3	6	248	0.00	29.922 
01:50	36.6	36.6	36.6	70	27.8	3	5	270	0.00	29.922 
01:55	36.8	36.8	36.8	70	27.9	3	6	270	0.00	29.922 
02:00	36.6	36.6	36.6	70	27.8	3	6	248	0.00	29.929 
02:05	36.6	36.6	36.6	71	28.1	3	7	270	0.00	29.929 
02:10	36.6	33.4	36.6	71	28.1	4	8	270	0.00	29.929 
02:15	36.6	36.6	36.6	71	28.1	3	7	315	0.00	29.936 
02:20	36.6	36.6	36.6	71	28.1	3	6	270	0.00	29.936 
02:25	36.5	36.5	36.5	72	28.3	2	4	292	0.00	29.936 
02:30	36.3	36.3	36.3	72	28.2	2	6	292	0.00	29.947 
02:35	36.2	36.2	36.2	72	28.1	3	7	270	0.00	29.947 
02:40	36.0	36.0	36.0	72	27.9	2	6	292	0.00	29.947 
02:45	35.8	35.8	35.8	72	27.7	3	6	338	0.00	29.954 
02:50	35.6	35.6	35.6	71	27.1	3	7	315	0.00	29.954 
02:55	35.5	32.1	35.5	69	26.4	4	12	315	0.00	29.954 
03:00	35.2	30.8	35.2	67	25.4	5	9	270	0.00	29.964 
03:05	35.2	31.8	35.2	66	25.0	4	7	270	0.00	29.964 
03:10	35.0	35.0	35.0	67	25.2	3	9	292	0.00	29.964 
03:15	35.0	35.0	35.0	67	25.2	3	6	270	0.00	29.965 
03:20	35.0	35.0	35.0	68	25.5	2	9	270	0.00	29.965 
03:25	34.9	34.9	34.9	68	25.4	1	5	315	0.00	29.965 
03:30	34.9	34.9	34.9	69	25.8	2	7	248	0.00	29.974 
03:35	34.9	34.9	34.9	69	25.8	3	7	270	0.00	29.974 
03:40	34.9	34.9	34.9	69	25.8	3	10	270	0.00	29.974 
03:45	34.7	34.7	34.7	70	25.9	2	6	270	0.00	29.982 
03:50	34.7	31.2	34.7	70	25.9	4	10	270	0.00	29.982 
03:55	34.7	34.7	34.7	70	25.9	3	7	270	0.00	29.982 
04:00	34.7	34.7	34.7	70	25.9	3	10	270	0.00	29.986 
04:05	34.7	34.7	34.7	70	25.9	3	7	315	0.00	29.986 
04:10	34.6	34.6	34.6	70	25.8	3	6	270	0.00	29.986 
04:15	34.4	30.8	34.4	69	25.3	4	10	270	0.00	29.997 
04:20	34.3	34.3	34.3	69	25.2	3	7	270	0.00	29.997 
04:25	34.1	30.5	34.1	69	25.0	4	11	270	0.00	29.997 
04:30	33.8	33.8	33.8	69	24.7	3	11	315	0.00	30.006 
04:35	33.7	33.7	33.7	69	24.6	3	5	270	0.00	30.006 
04:40	33.4	29.7	33.4	69	24.3	4	9	270	0.00	30.006 
04:45	33.2	29.5	33.2	67	23.4	4	10	315	0.00	30.014 
04:50	33.1	29.3	33.1	66	23.0	4	9	315	0.00	30.014 
04:55	33.1	33.1	33.1	67	23.4	3	7	270	0.00	30.014 
05:00	33.1	33.1	33.1	68	23.7	2	5	315	0.00	30.021 
05:05	32.9	32.9	32.9	68	23.5	2	4	338	0.00	30.021 
05:10	32.9	29.1	32.9	68	23.5	4	9	315	0.00	30.021 
05:15	32.7	28.9	32.7	67	23.0	4	11	270	0.00	30.032 
05:20	32.7	32.7	32.7	68	23.3	3	9	270	0.00	30.032 
05:25	32.7	32.7	32.7	68	23.3	2	6	338	0.00	30.032 
05:30	32.7	32.7	32.7	68	23.3	2	9	270	0.00	30.036 
05:35	32.7	32.7	32.7	69	23.7	2	7	270	0.00	30.036 
05:40	32.7	32.7	32.7	69	23.7	2	6	270	0.00	30.036 
05:45	32.7	32.7	32.7	69	23.7	1	5	270	0.00	30.049 
05:50	32.7	32.7	32.7	69	23.7	2	4	338	0.00	30.049 
05:55	32.5	32.5	32.5	69	23.5	2	5	315	0.00	30.049 
06:00	32.5	32.5	32.5	68	23.1	3	9	270	0.00	30.054 
06:05	32.5	32.5	32.5	68	23.1	3	7	338	0.00	30.054 
06:10	32.5	32.5	32.5	68	23.1	2	5	292	0.00	30.054 
06:15	32.5	32.5	32.5	68	23.1	2	5	270	0.00	30.063 
06:20	32.5	32.5	32.5	69	23.5	2	7	270	0.00	30.063 
06:25	32.5	32.5	32.5	69	23.5	1	4	292	0.00	30.063 
06:30	32.5	32.5	32.5	69	23.5	2	6	270	0.00	30.065 
06:35	32.5	32.5	32.5	69	23.5	2	5	315	0.00	30.065 
06:40	32.5	32.5	32.5	68	23.1	2	5	270	0.00	30.065 
06:45	32.5	32.5	32.5	68	23.1	3	7	270	0.00	30.076 
06:50	32.5	32.5	32.5	67	22.8	2	5	292	0.00	30.076 
06:55	32.5	32.5	32.5	67	22.8	2	5	248	0.00	30.076 
07:00	32.5	32.5	32.5	67	22.8	2	5	248	0.00	30.081 
07:05	32.7	32.7	32.7	67	23.0	3	6	292	0.00	30.081 
07:10	32.7	32.7	32.7	67	23.0	2	5	292	0.00	30.081 
07:15	32.7	32.7	32.7	67	23.0	2	5	315	0.00	30.083 
07:20	32.7	32.7	32.7	68	23.3	1	4	270	0.00	30.083 
07:25	32.7	32.7	32.7	68	23.3	1	5	270	0.00	30.083 
07:30	32.7	32.7	32.7	67	23.0	2	5	270	0.00	30.093 
07:35	32.7	32.7	32.7	67	23.0	3	7	292	0.00	30.093 
07:40	32.8	32.8	32.8	67	23.1	2	10	315	0.00	30.093 
07:45	32.8	32.8	32.8	67	23.1	1	4	315	0.00	30.099 
07:50	32.8	32.8	32.8	67	23.1	1	5	292	0.00	30.099 
07:55	32.8	32.8	32.8	67	23.1	1	4	270	0.00	30.099 
08:00	32.9	32.9	32.9	67	23.2	2	4	270	0.00	30.110 
08:05	32.9	32.9	32.9	67	23.2	1	5	338	0.00	30.110 
08:10	32.9	32.9	32.9	67	23.2	2	6	315	0.00	30.110 
08:15	33.1	33.1	33.1	66	23.0	1	5	248	0.00	30.114 
08:20	33.1	33.1	33.1	66	23.0	1	4	315	0.00	30.114 
08:25	33.2	33.2	33.2	65	22.7	2	5	292	0.00	30.114 
08:30	33.2	33.2	33.2	65	22.7	2	6	270	0.00	30.124 
08:35	33.4	33.4	33.4	65	22.9	2	5	270	0.00	30.124 
08:40	33.5	33.5	33.5	66	23.4	0	2	270	0.00	30.124 
08:45	33.5	33.5	33.5	65	23.0	1	6	292	0.00	30.129 
08:50	33.7	33.7	33.7	65	23.2	2	6	292	0.00	30.129 
08:55	33.8	33.8	33.8	65	23.3	2	5	270	0.00	30.129 
09:00	34.0	34.0	34.0	65	23.5	1	5	270	0.00	30.136 
09:05	34.1	34.1	34.1	65	23.6	2	6	315	0.00	30.136 
09:10	34.3	34.3	34.3	65	23.8	2	7	270	0.00	30.136 
09:15	34.3	34.3	34.3	65	23.8	2	6	315	0.00	30.142 
09:20	34.4	34.4	34.4	65	23.9	2	6	292	0.00	30.142 
09:25	34.7	34.7	34.7	65	24.2	1	4	315	0.00	30.142 
09:30	35.0	35.0	35.0	66	24.8	1	4	292	0.00	30.146 
09:35	35.0	35.0	35.0	65	24.4	3	6	338	0.00	30.146 
09:40	35.2	35.2	35.2	64	24.3	2	5	248	0.00	30.146 
09:45	35.6	35.6	35.6	65	25.0	2	6	270	0.00	30.145 
09:50	35.6	35.6	35.6	63	24.3	3	8	270	0.00	30.145 
09:55	35.3	31.9	35.3	63	24.0	4	7	270	0.00	30.145 
10:00	35.8	35.8	35.8	63	24.5	3	6	270	0.00	30.157 
10:05	36.0	36.0	36.0	62	24.3	3	9	292	0.00	30.157 
10:10	36.5	36.5	36.5	63	25.1	2	6	270	0.00	30.157 
10:15	36.9	36.9	36.9	61	24.7	2	5	270	0.00	30.158 
10:20	36.6	36.6	36.6	61	24.4	2	6	270	0.00	30.158 
10:25	36.5	36.5	36.5	61	24.3	2	5	270	0.00	30.158 
10:30	36.2	36.2	36.2	61	24.1	2	6	270	0.00	30.165 
10:35	36.8	36.8	36.8	60	24.2	3	7	338	0.00	30.165 
10:40	37.5	37.5	37.5	61	25.3	3	7	292	0.00	30.165 
10:45	37.8	37.8	37.8	59	24.8	3	9	338	0.00	30.161 
10:50	38.2	38.2	38.2	60	25.6	3	7	248	0.00	30.161 
10:55	38.3	38.3	38.3	58	24.8	3	6	270	0.00	30.161 
11:00	38.6	38.6	38.6	58	25.1	2	4	292	0.00	30.166 
11:05	38.9	38.9	38.9	58	25.4	2	6	248	0.00	30.166 
11:10	38.9	38.9	38.9	58	25.4	2	5	270	0.00	30.166 
11:15	39.3	39.3	39.3	59	26.2	2	5	270	0.00	30.164 
11:20	39.9	39.9	39.9	58	26.3	1	4	292	0.00	30.164 
11:25	40.2	40.2	40.2	58	26.6	2	5	292	0.00	30.164 
11:30	40.1	40.1	40.1	57	26.1	2	4	315	0.00	30.167 
11:35	40.3	40.3	40.3	57	26.3	2	4	270	0.00	30.167 
11:40	40.5	40.5	40.5	58	26.9	2	6	0	0.00	30.167 
11:45	40.9	40.9	40.9	57	26.9	2	7	0	0.00	30.170 
11:50	41.1	41.1	41.1	58	27.5	2	6	338	0.00	30.170 
11:55	41.2	41.2	41.2	56	26.7	2	6	315	0.00	30.170 
12:00	41.3	41.3	41.3	54	25.9	2	5	248	0.00	30.170 
12:05	41.5	41.5	41.5	54	26.1	3	7	338	0.00	30.170 
12:10	41.8	41.8	41.8	56	27.3	2	5	315	0.00	30.170 
12:15	42.2	42.2	42.2	54	26.8	3	5	248	0.00	30.169 
12:20	42.2	42.2	42.2	54	26.8	2	4	270	0.00	30.169 
12:25	42.8	42.8	42.8	54	27.3	2	4	270	0.00	30.169 
12:30	42.8	42.8	42.8	53	26.9	2	5	270	0.00	30.163 
12:35	43.2	43.2	43.2	55	28.1	2	5	270	0.00	30.163 
12:40	43.3	43.3	43.3	53	27.3	2	6	248	0.00	30.163 
12:45	43.5	43.5	43.5	52	27.1	2	5	315	0.00	30.167 
12:50	43.8	43.8	43.8	53	27.8	3	11	270	0.00	30.167 
12:55	44.1	44.1	44.1	53	28.1	2	5	292	0.00	30.167 
13:00	44.1	44.1	44.1	50	26.7	2	6	315	0.00	30.166 
13:05	44.1	44.1	44.1	50	26.7	2	7	248	0.00	30.166 
13:10	44.5	44.5	44.5	52	28.0	2	6	248	0.00	30.166 
13:15	44.5	44.5	44.5	52	28.0	3	7	315	0.00	30.161 
13:20	44.8	44.8	44.8	51	27.8	2	4	315	0.00	30.161 
13:25	44.9	44.9	44.9	52	28.4	2	7	338	0.00	30.161 
13:30	45.5	45.5	45.5	49	27.5	2	5	292	0.00	30.158 
13:35	45.5	45.5	45.5	46	25.9	2	9	315	0.00	30.158 
13:40	45.7	45.7	45.7	46	26.1	2	5	315	0.00	30.158 
13:45	46.0	46.0	46.0	49	27.9	2	6	248	0.00	30.155 
13:50	46.1	46.1	46.1	46	26.5	1	7	248	0.00	30.155 
13:55	46.1	46.1	46.1	46	26.5	1	5	338	0.00	30.155 
14:00	46.5	46.5	46.5	46	26.8	2	4	270	0.00	30.158 
14:05	46.5	46.5	46.5	43	25.2	1	4	292	0.00	30.158 
14:10	46.8	46.8	46.8	41	24.4	2	5	292	0.00	30.158 
14:15	47.0	47.0	47.0	39	23.3	1	5	270	0.00	30.163 
14:20	47.3	47.3	47.3	44	26.5	1	4	270	0.00	30.163 
14:25	47.3	47.3	47.3	42	25.4	1	4	0	0.00	30.163 
14:30	47.3	47.3	47.3	41	24.8	1	3	248	0.00	30.159 
14:35	47.4	47.4	47.4	42	25.5	2	6	270	0.00	30.159 
14:40	47.4	47.4	47.4	41	24.9	3	5	270	0.00	30.159 
14:45	47.6	47.6	47.6	39	23.9	1	4	270	0.00	30.155 
14:50	48.2	48.2	48.2	42	26.2	2	5	315	0.00	30.155 
14:55	48.5	48.5	48.5	40	25.3	1	4	270	0.00	30.155 
15:00	48.5	48.5	48.5	39	24.7	1	2	270	0.00	30.151 
15:05	48.0	48.0	48.0	36	22.3	2	7	315	0.00	30.151 
15:10	48.0	48.0	48.0	39	24.2	1	4	0	0.00	30.151 
15:15	48.0	48.0	48.0	40	24.8	2	6	0	0.00	30.152 
15:20	48.8	48.8	48.8	36	23.0	3	5	270	0.00	30.152 
15:25	49.2	49.2	49.2	38	24.7	1	4	338	0.00	30.152 
15:30	49.2	49.2	49.2	33	21.3	2	6	315	0.00	30.150 
15:35	49.2	49.2	49.2	35	22.7	2	4	338	0.00	30.150 
15:40	49.1	49.1	49.1	34	22.0	2	4	338	0.00	30.150 
15:45	49.4	49.4	49.4	35	22.9	1	4	315	0.00	30.147 
15:50	49.4	49.4	49.4	33	21.5	2	5	292	0.00	30.147 
15:55	49.4	49.4	49.4	34	22.2	1	3	338	0.00	30.147 
16:00	49.6	49.6	49.6	35	23.1	1	4	270	0.00	30.148 
16:05	49.6	49.6	49.6	33	21.7	3	6	338	0.00	30.148 
16:10	49.4	49.4	49.4	32	20.8	2	5	338	0.00	30.148 
16:15	49.2	49.2	49.2	35	22.7	1	4	315	0.00	30.150 
16:20	49.5	49.5	49.5	34	22.3	2	6	315	0.00	30.150 
16:25	49.4	49.4	49.4	33	21.5	1	4	338	0.00	30.150 
16:30	49.4	49.4	49.4	34	22.2	3	7	315	0.00	30.150 
16:35	49.1	49.1	49.1	34	22.0	1	5	338	0.00	30.150 
16:40	49.5	49.5	49.5	35	23.0	1	3	315	0.00	30.150 
16:45	49.8	49.8	49.8	35	23.3	1	3	315	0.00	30.149 
16:50	49.9	49.9	49.9	33	22.0	2	5	270	0.00	30.149 
16:55	49.6	49.6	49.6	35	23.1	2	4	315	0.00	30.149 
17:00	49.5	49.5	49.5	34	22.3	2	7	315	0.00	30.149 
17:05	49.2	49.2	49.2	31	19.9	1	5	315	0.00	30.149 
17:10	49.4	49.4	49.4	35	22.9	2	6	315	0.00	30.149 
17:15	49.5	49.5	49.5	34	22.3	1	4	270	0.00	30.148 
17:20	49.4	49.4	49.4	35	22.9	2	5	292	0.00	30.148 
17:25	49.4	49.4	49.4	35	22.9	1	3	315	0.00	30.148 
17:30	49.5	49.5	49.5	36	23.7	1	3	315	0.00	30.149 
17:35	49.6	49.6	49.6	35	23.1	2	4	315	0.00	30.149 
17:40	49.9	49.9	49.9	35	23.3	1	3	270	0.00	30.149 
17:45	50.2	50.2	50.2	33	22.2	0	2	270	0.00	30.150 
17:50	50.5	50.5	50.5	33	22.5	1	3	270	0.00	30.150 
17:55	50.7	50.7	50.7	31	21.2	1	3	270	0.00	30.150 
18:00	50.8	50.8	50.8	31	21.3	1	7	270	0.00	30.150 
18:05	50.5	50.5	50.5	33	22.5	1	4	338	0.00	30.150 
18:10	50.4	50.4	50.4	30	20.2	1	2	338	0.00	30.150 
18:15	50.1	50.1	50.1	32	21.4	1	4	338	0.00	30.153 
18:20	49.8	49.8	49.8	32	21.1	1	4	292	0.00	30.153 
18:25	49.5	49.5	49.5	33	21.6	1	5	292	0.00	30.153 
18:30	49.2	49.2	49.2	32	20.6	1	4	315	0.00	30.151 
18:35	48.9	48.9	48.9	32	20.4	2	4	315	0.00	30.151 
18:40	48.8	48.8	48.8	32	20.3	1	3	292	0.00	30.151 
18:45	48.6	48.6	48.6	32	20.1	1	4	292	0.00	30.152 
18:50	48.5	48.5	48.5	32	20.0	1	3	338	0.00	30.152 
18:55	48.2	48.2	48.2	32	19.7	1	5	315	0.00	30.152 
19:00	48.0	48.0	48.0	33	20.3	1	3	315	0.00	30.156 
19:05	48.0	48.0	48.0	31	18.8	1	3	315	0.00	30.156 
19:10	47.9	47.9	47.9	31	18.7	0	2	270	0.00	30.156 
19:15	47.6	47.6	47.6	34	20.6	1	4	0	0.00	30.157 
19:20	47.3	47.3	47.3	32	19.0	1	5	338	0.00	30.157 
19:25	47.1	47.1	47.1	33	19.5	1	4	315	0.00	30.157 
19:30	47.0	47.0	47.0	32	18.7	1	3	315	0.00	30.161 
19:35	46.7	46.7	46.7	32	18.4	1	3	315	0.00	30.161 
19:40	46.5	46.5	46.5	33	19.0	0	2	315	0.00	30.161 
19:45	46.4	46.4	46.4	33	18.9	0	2	315	0.00	30.167 
19:50	46.1	46.1	46.1	34	19.3	0	2	315	0.00	30.167 
19:55	45.8	45.8	45.8	33	18.4	0	2	315	0.00	30.167 
20:00	45.7	45.7	45.7	34	19.0	0	1	315	0.00	30.170 
20:05	45.4	45.4	45.4	35	19.4	0	0	---	0.00	30.170 
20:10	44.9	44.9	44.9	36	19.6	0	0	---	0.00	30.170 
20:15	44.6	44.6	44.6	36	19.3	0	1	315	0.00	30.174 
20:20	44.3	44.3	44.3	36	19.0	0	1	315	0.00	30.174 
20:25	44.1	44.1	44.1	38	20.1	0	0	---	0.00	30.174 
20:30	43.6	43.6	43.6	38	19.7	0	0	---	0.00	30.179 
20:35	43.1	43.1	43.1	39	19.8	0	0	---	0.00	30.179 
20:40	42.6	42.6	42.6	39	19.4	0	0	---	0.00	30.179 
20:45	42.2	42.2	42.2	39	19.0	0	0	---	0.00	30.184 
20:50	41.8	41.8	41.8	40	19.3	0	0	---	0.00	30.184 
20:55	41.3	41.3	41.3	41	19.4	0	0	---	0.00	30.184 
21:00	40.9	40.9	40.9	42	19.6	0	0	---	0.00	30.190 
21:05	40.6	40.6	40.6	43	19.9	0	0	---	0.00	30.190 
21:10	40.2	40.2	40.2	43	19.5	0	0	---	0.00	30.190 
21:15	39.9	39.9	39.9	43	19.2	0	0	---	0.00	30.194 
21:20	39.6	39.6	39.6	43	19.0	0	0	---	0.00	30.194 
21:25	39.5	39.5	39.5	44	19.4	0	0	---	0.00	30.194 
21:30	39.2	39.2	39.2	44	19.1	0	0	---	0.00	30.199 
21:35	38.9	38.9	38.9	45	19.4	0	0	---	0.00	30.199 
21:40	38.8	38.8	38.8	46	19.8	0	0	---	0.00	30.199 
21:45	38.5	38.5	38.5	47	20.0	0	0	---	0.00	30.203 
21:50	38.2	38.2	38.2	48	20.3	0	0	---	0.00	30.203 
21:55	37.8	37.8	37.8	48	19.9	0	0	---	0.00	30.203 
22:00	37.5	37.5	37.5	49	20.1	0	0	---	0.00	30.203 
22:05	37.0	37.0	37.0	50	20.1	0	0	---	0.00	30.203 
22:10	36.6	36.6	36.6	52	20.7	0	0	---	0.00	30.203 
22:15	36.3	36.3	36.3	53	20.8	0	0	---	0.00	30.199 
22:20	36.0	36.0	36.0	54	21.0	0	0	---	0.00	30.199 
22:25	35.8	35.8	35.8	55	21.2	0	0	---	0.00	30.199 
22:30	35.8	35.8	35.8	56	21.7	0	0	---	0.00	30.200 
22:35	35.8	35.8	35.8	56	21.7	0	0	---	0.00	30.200 
22:40	35.9	35.9	35.9	55	21.3	0	0	---	0.00	30.200 
22:45	35.9	35.9	35.9	56	21.8	0	0	---	0.00	30.201 
22:50	35.6	35.6	35.6	57	21.9	0	0	---	0.00	30.201 
22:55	35.3	35.3	35.3	58	22.0	0	0	---	0.00	30.201 
23:00	34.9	34.9	34.9	58	21.6	0	0	---	0.00	30.200 
23:05	34.6	34.6	34.6	59	21.8	0	0	---	0.00	30.200 
23:10	34.3	34.3	34.3	59	21.5	0	0	---	0.00	30.200 
23:15	34.0	34.0	34.0	61	22.0	0	0	---	0.00	30.201 
23:20	33.7	33.7	33.7	62	22.1	0	0	---	0.00	30.201 
23:25	33.4	33.4	33.4	63	22.2	0	0	---	0.00	30.201 
23:30	33.2	33.2	33.2	64	22.4	0	0	---	0.00	30.202 
23:35	33.1	33.1	33.1	65	22.6	0	0	---	0.00	30.202 
23:40	32.9	32.9	32.9	66	22.8	0	0	---	0.00	30.202 
23:45	32.8	32.8	32.8	66	22.7	0	0	---	0.00	30.203 
23:50	32.7	32.7	32.7	67	23.0	0	0	---	0.00	30.203 
23:55	32.4	32.4	32.4	67	22.7	0	0	---	0.00	30.203 

CoCoRaHS
IN-AL-39
A2 Web Hosting
Creative Commons License
GoDaddy
search engine by freefind advanced

loaded 2018-11-13 01:52:57 • last modified 2010-11-18 10:43:29
Privacy PolicyDisclaimer
• wx.awcolley.com is powered by PmWiki v.2002016 •
• all content (unless otherwise noted) © 2018 A W Colley